sensor_id;sensor_type;location;lat;lon;timestamp;P1;durP1;ratioP1;P2;durP2;ratioP2
16416;SDS011;8317;52.186;5.688;2022-12-29T00:00:19;4.70;;;4.20;;
16416;SDS011;8317;52.186;5.688;2022-12-29T00:02:46;7.55;;;3.75;;
16416;SDS011;8317;52.186;5.688;2022-12-29T00:05:13;4.78;;;4.07;;
16416;SDS011;8317;52.186;5.688;2022-12-29T00:07:40;5.85;;;3.70;;
16416;SDS011;8317;52.186;5.688;2022-12-29T00:10:07;4.15;;;3.85;;
16416;SDS011;8317;52.186;5.688;2022-12-29T00:12:35;5.28;;;3.65;;
16416;SDS011;8317;52.186;5.688;2022-12-29T00:15:20;5.22;;;3.28;;
16416;SDS011;8317;52.186;5.688;2022-12-29T00:18:05;4.72;;;3.10;;
16416;SDS011;8317;52.186;5.688;2022-12-29T00:20:33;3.80;;;2.97;;
16416;SDS011;8317;52.186;5.688;2022-12-29T00:23:17;4.07;;;3.33;;
16416;SDS011;8317;52.186;5.688;2022-12-29T00:26:02;6.40;;;3.53;;
16416;SDS011;8317;52.186;5.688;2022-12-29T00:28:48;3.13;;;2.83;;
16416;SDS011;8317;52.186;5.688;2022-12-29T00:31:34;5.63;;;3.83;;
16416;SDS011;8317;52.186;5.688;2022-12-29T00:34:18;4.10;;;3.15;;
16416;SDS011;8317;52.186;5.688;2022-12-29T00:37:02;3.58;;;3.28;;
16416;SDS011;8317;52.186;5.688;2022-12-29T00:39:29;6.70;;;3.70;;
16416;SDS011;8317;52.186;5.688;2022-12-29T00:42:13;3.83;;;3.15;;
16416;SDS011;8317;52.186;5.688;2022-12-29T00:44:58;3.53;;;3.00;;
16416;SDS011;8317;52.186;5.688;2022-12-29T00:47:25;4.93;;;3.28;;
16416;SDS011;8317;52.186;5.688;2022-12-29T00:49:52;4.20;;;3.20;;
16416;SDS011;8317;52.186;5.688;2022-12-29T00:52:18;3.85;;;3.33;;
16416;SDS011;8317;52.186;5.688;2022-12-29T00:54:45;3.25;;;2.50;;
16416;SDS011;8317;52.186;5.688;2022-12-29T00:57:12;3.95;;;3.42;;
16416;SDS011;8317;52.186;5.688;2022-12-29T00:59:39;4.70;;;3.33;;
16416;SDS011;8317;52.186;5.688;2022-12-29T01:02:09;3.28;;;2.80;;
16416;SDS011;8317;52.186;5.688;2022-12-29T01:04:36;3.42;;;3.05;;
16416;SDS011;8317;52.186;5.688;2022-12-29T01:07:03;4.80;;;3.35;;
16416;SDS011;8317;52.186;5.688;2022-12-29T01:09:31;3.33;;;2.80;;
16416;SDS011;8317;52.186;5.688;2022-12-29T01:12:15;3.88;;;3.05;;
16416;SDS011;8317;52.186;5.688;2022-12-29T01:15:03;5.28;;;3.03;;
16416;SDS011;8317;52.186;5.688;2022-12-29T01:17:32;3.53;;;2.80;;
16416;SDS011;8317;52.186;5.688;2022-12-29T01:19:58;2.90;;;2.65;;
16416;SDS011;8317;52.186;5.688;2022-12-29T01:22:25;4.95;;;2.50;;
16416;SDS011;8317;52.186;5.688;2022-12-29T01:24:52;2.80;;;2.40;;
16416;SDS011;8317;52.186;5.688;2022-12-29T01:27:19;2.50;;;2.00;;
16416;SDS011;8317;52.186;5.688;2022-12-29T01:29:46;3.35;;;2.10;;
16416;SDS011;8317;52.186;5.688;2022-12-29T01:32:13;2.42;;;2.22;;
16416;SDS011;8317;52.186;5.688;2022-12-29T01:34:41;3.00;;;2.35;;
16416;SDS011;8317;52.186;5.688;2022-12-29T01:37:08;2.17;;;1.98;;
16416;SDS011;8317;52.186;5.688;2022-12-29T01:39:35;1.60;;;1.50;;
16416;SDS011;8317;52.186;5.688;2022-12-29T01:42:02;2.65;;;1.80;;
16416;SDS011;8317;52.186;5.688;2022-12-29T01:47:17;1.70;;;1.60;;
16416;SDS011;8317;52.186;5.688;2022-12-29T01:49:52;4.38;;;1.77;;
16416;SDS011;8317;52.186;5.688;2022-12-29T01:52:22;1.80;;;1.70;;
16416;SDS011;8317;52.186;5.688;2022-12-29T01:54:53;2.38;;;2.00;;
16416;SDS011;8317;52.186;5.688;2022-12-29T01:57:23;4.25;;;2.17;;
16416;SDS011;8317;52.186;5.688;2022-12-29T01:59:55;3.33;;;2.30;;
16416;SDS011;8317;52.186;5.688;2022-12-29T02:02:26;3.58;;;2.20;;
16416;SDS011;8317;52.186;5.688;2022-12-29T02:04:55;2.67;;;2.40;;
16416;SDS011;8317;52.186;5.688;2022-12-29T02:07:24;2.88;;;2.10;;
16416;SDS011;8317;52.186;5.688;2022-12-29T02:09:52;2.50;;;2.30;;
16416;SDS011;8317;52.186;5.688;2022-12-29T02:12:20;2.15;;;1.90;;
16416;SDS011;8317;52.186;5.688;2022-12-29T02:14:50;5.53;;;2.47;;
16416;SDS011;8317;52.186;5.688;2022-12-29T02:17:23;3.47;;;2.53;;
16416;SDS011;8317;52.186;5.688;2022-12-29T02:20:11;2.72;;;2.50;;
16416;SDS011;8317;52.186;5.688;2022-12-29T02:23:08;4.15;;;2.63;;
16416;SDS011;8317;52.186;5.688;2022-12-29T02:25:59;2.55;;;2.35;;
16416;SDS011;8317;52.186;5.688;2022-12-29T02:28:49;4.03;;;2.53;;
16416;SDS011;8317;52.186;5.688;2022-12-29T02:31:32;3.92;;;2.55;;
16416;SDS011;8317;52.186;5.688;2022-12-29T02:34:10;2.33;;;2.13;;
16416;SDS011;8317;52.186;5.688;2022-12-29T02:36:49;2.33;;;2.10;;
16416;SDS011;8317;52.186;5.688;2022-12-29T02:39:27;2.47;;;2.03;;
16416;SDS011;8317;52.186;5.688;2022-12-29T02:42:05;3.33;;;2.15;;
16416;SDS011;8317;52.186;5.688;2022-12-29T02:44:41;3.42;;;1.90;;
16416;SDS011;8317;52.186;5.688;2022-12-29T02:47:21;2.05;;;1.80;;
16416;SDS011;8317;52.186;5.688;2022-12-29T02:49:54;3.13;;;1.98;;
16416;SDS011;8317;52.186;5.688;2022-12-29T02:52:26;8.30;;;1.83;;
16416;SDS011;8317;52.186;5.688;2022-12-29T02:54:58;2.33;;;1.80;;
16416;SDS011;8317;52.186;5.688;2022-12-29T02:57:31;4.03;;;1.85;;
16416;SDS011;8317;52.186;5.688;2022-12-29T03:00:00;5.65;;;1.63;;
16416;SDS011;8317;52.186;5.688;2022-12-29T03:02:37;2.38;;;1.30;;
16416;SDS011;8317;52.186;5.688;2022-12-29T03:05:17;1.50;;;1.20;;
16416;SDS011;8317;52.186;5.688;2022-12-29T03:07:56;2.78;;;1.58;;
16416;SDS011;8317;52.186;5.688;2022-12-29T03:10:30;4.40;;;1.40;;
16416;SDS011;8317;52.186;5.688;2022-12-29T03:13:06;6.78;;;1.77;;
16416;SDS011;8317;52.186;5.688;2022-12-29T03:16:00;1.90;;;1.40;;
16416;SDS011;8317;52.186;5.688;2022-12-29T03:18:39;2.28;;;1.40;;
16416;SDS011;8317;52.186;5.688;2022-12-29T03:21:11;3.05;;;1.50;;
16416;SDS011;8317;52.186;5.688;2022-12-29T03:23:41;2.75;;;1.77;;
16416;SDS011;8317;52.186;5.688;2022-12-29T03:26:12;2.80;;;2.08;;
16416;SDS011;8317;52.186;5.688;2022-12-29T03:28:44;2.67;;;1.70;;
16416;SDS011;8317;52.186;5.688;2022-12-29T03:31:16;2.70;;;2.00;;
16416;SDS011;8317;52.186;5.688;2022-12-29T03:33:46;3.10;;;1.80;;
16416;SDS011;8317;52.186;5.688;2022-12-29T03:36:17;2.47;;;1.98;;
16416;SDS011;8317;52.186;5.688;2022-12-29T03:38:53;3.67;;;2.05;;
16416;SDS011;8317;52.186;5.688;2022-12-29T03:41:26;2.38;;;2.00;;
16416;SDS011;8317;52.186;5.688;2022-12-29T03:43:56;2.83;;;1.70;;
16416;SDS011;8317;52.186;5.688;2022-12-29T03:46:23;6.07;;;2.47;;
16416;SDS011;8317;52.186;5.688;2022-12-29T03:48:51;1.80;;;1.67;;
16416;SDS011;8317;52.186;5.688;2022-12-29T03:51:18;4.13;;;1.70;;
16416;SDS011;8317;52.186;5.688;2022-12-29T03:53:45;5.10;;;2.00;;
16416;SDS011;8317;52.186;5.688;2022-12-29T03:56:12;4.90;;;2.15;;
16416;SDS011;8317;52.186;5.688;2022-12-29T03:58:38;3.42;;;1.85;;
16416;SDS011;8317;52.186;5.688;2022-12-29T04:01:05;5.10;;;2.58;;
16416;SDS011;8317;52.186;5.688;2022-12-29T04:03:32;5.07;;;1.90;;
16416;SDS011;8317;52.186;5.688;2022-12-29T04:06:00;3.75;;;1.42;;
16416;SDS011;8317;52.186;5.688;2022-12-29T04:08:27;2.10;;;1.58;;
16416;SDS011;8317;52.186;5.688;2022-12-29T04:10:54;3.83;;;1.30;;
16416;SDS011;8317;52.186;5.688;2022-12-29T04:13:21;4.03;;;1.75;;
16416;SDS011;8317;52.186;5.688;2022-12-29T04:15:48;2.00;;;1.75;;
16416;SDS011;8317;52.186;5.688;2022-12-29T04:18:15;3.25;;;2.00;;
16416;SDS011;8317;52.186;5.688;2022-12-29T04:20:42;3.03;;;1.95;;
16416;SDS011;8317;52.186;5.688;2022-12-29T04:23:27;2.70;;;1.88;;
16416;SDS011;8317;52.186;5.688;2022-12-29T04:25:54;2.85;;;2.22;;
16416;SDS011;8317;52.186;5.688;2022-12-29T04:28:21;5.03;;;2.05;;
16416;SDS011;8317;52.186;5.688;2022-12-29T04:30:48;3.63;;;1.88;;
16416;SDS011;8317;52.186;5.688;2022-12-29T04:33:16;5.05;;;2.08;;
16416;SDS011;8317;52.186;5.688;2022-12-29T04:35:43;4.75;;;2.20;;
16416;SDS011;8317;52.186;5.688;2022-12-29T04:38:10;6.60;;;2.00;;
16416;SDS011;8317;52.186;5.688;2022-12-29T04:40:39;5.63;;;1.63;;
16416;SDS011;8317;52.186;5.688;2022-12-29T04:43:07;7.43;;;2.15;;
16416;SDS011;8317;52.186;5.688;2022-12-29T04:45:35;4.43;;;1.80;;
16416;SDS011;8317;52.186;5.688;2022-12-29T04:48:01;6.30;;;1.70;;
16416;SDS011;8317;52.186;5.688;2022-12-29T04:50:29;5.40;;;1.75;;
16416;SDS011;8317;52.186;5.688;2022-12-29T04:52:55;2.88;;;1.83;;
16416;SDS011;8317;52.186;5.688;2022-12-29T04:55:22;4.78;;;1.85;;
16416;SDS011;8317;52.186;5.688;2022-12-29T04:57:50;7.03;;;2.13;;
16416;SDS011;8317;52.186;5.688;2022-12-29T05:00:17;4.18;;;1.70;;
16416;SDS011;8317;52.186;5.688;2022-12-29T05:02:44;6.60;;;1.88;;
16416;SDS011;8317;52.186;5.688;2022-12-29T05:05:11;4.82;;;1.70;;
16416;SDS011;8317;52.186;5.688;2022-12-29T05:07:38;7.38;;;1.85;;
16416;SDS011;8317;52.186;5.688;2022-12-29T05:10:06;8.50;;;1.80;;
16416;SDS011;8317;52.186;5.688;2022-12-29T05:12:34;7.72;;;1.80;;
16416;SDS011;8317;52.186;5.688;2022-12-29T05:15:03;10.13;;;1.90;;
16416;SDS011;8317;52.186;5.688;2022-12-29T05:17:31;13.50;;;2.30;;
16416;SDS011;8317;52.186;5.688;2022-12-29T05:19:58;11.55;;;2.20;;
16416;SDS011;8317;52.186;5.688;2022-12-29T05:22:25;10.95;;;1.90;;
16416;SDS011;8317;52.186;5.688;2022-12-29T05:24:52;7.85;;;2.33;;
16416;SDS011;8317;52.186;5.688;2022-12-29T05:27:19;6.93;;;2.03;;
16416;SDS011;8317;52.186;5.688;2022-12-29T05:29:46;9.63;;;2.17;;
16416;SDS011;8317;52.186;5.688;2022-12-29T05:32:14;9.98;;;1.73;;
16416;SDS011;8317;52.186;5.688;2022-12-29T05:34:41;9.85;;;1.90;;
16416;SDS011;8317;52.186;5.688;2022-12-29T05:37:08;8.13;;;2.00;;
16416;SDS011;8317;52.186;5.688;2022-12-29T05:39:34;9.65;;;2.08;;
16416;SDS011;8317;52.186;5.688;2022-12-29T05:42:01;12.38;;;2.13;;
16416;SDS011;8317;52.186;5.688;2022-12-29T05:44:28;7.85;;;1.90;;
16416;SDS011;8317;52.186;5.688;2022-12-29T05:46:55;6.95;;;1.60;;
16416;SDS011;8317;52.186;5.688;2022-12-29T05:49:24;10.50;;;2.25;;
16416;SDS011;8317;52.186;5.688;2022-12-29T05:51:50;9.98;;;2.42;;
16416;SDS011;8317;52.186;5.688;2022-12-29T05:54:17;5.22;;;1.80;;
16416;SDS011;8317;52.186;5.688;2022-12-29T05:56:44;7.93;;;2.10;;
16416;SDS011;8317;52.186;5.688;2022-12-29T05:59:11;5.57;;;1.70;;
16416;SDS011;8317;52.186;5.688;2022-12-29T06:01:38;7.70;;;1.98;;
16416;SDS011;8317;52.186;5.688;2022-12-29T06:04:05;8.18;;;1.55;;
16416;SDS011;8317;52.186;5.688;2022-12-29T06:06:33;11.57;;;1.90;;
16416;SDS011;8317;52.186;5.688;2022-12-29T06:09:00;8.32;;;1.73;;
16416;SDS011;8317;52.186;5.688;2022-12-29T06:11:27;8.25;;;2.03;;
16416;SDS011;8317;52.186;5.688;2022-12-29T06:13:53;11.20;;;2.15;;
16416;SDS011;8317;52.186;5.688;2022-12-29T06:16:20;7.25;;;1.80;;
16416;SDS011;8317;52.186;5.688;2022-12-29T06:18:47;12.63;;;2.28;;
16416;SDS011;8317;52.186;5.688;2022-12-29T06:21:14;7.57;;;1.60;;
16416;SDS011;8317;52.186;5.688;2022-12-29T06:23:42;7.78;;;1.90;;
16416;SDS011;8317;52.186;5.688;2022-12-29T06:26:09;11.45;;;2.35;;
16416;SDS011;8317;52.186;5.688;2022-12-29T06:28:36;9.63;;;2.05;;
16416;SDS011;8317;52.186;5.688;2022-12-29T06:31:03;8.05;;;2.33;;
16416;SDS011;8317;52.186;5.688;2022-12-29T06:33:30;9.57;;;2.03;;
16416;SDS011;8317;52.186;5.688;2022-12-29T06:35:57;9.52;;;2.45;;
16416;SDS011;8317;52.186;5.688;2022-12-29T06:38:23;8.13;;;1.92;;
16416;SDS011;8317;52.186;5.688;2022-12-29T06:40:52;12.40;;;2.13;;
16416;SDS011;8317;52.186;5.688;2022-12-29T06:43:19;5.82;;;1.77;;
16416;SDS011;8317;52.186;5.688;2022-12-29T06:45:46;8.50;;;1.95;;
16416;SDS011;8317;52.186;5.688;2022-12-29T06:48:13;7.78;;;2.35;;
16416;SDS011;8317;52.186;5.688;2022-12-29T06:50:40;7.50;;;1.98;;
16416;SDS011;8317;52.186;5.688;2022-12-29T06:53:07;6.88;;;1.85;;
16416;SDS011;8317;52.186;5.688;2022-12-29T06:55:33;12.63;;;2.78;;
16416;SDS011;8317;52.186;5.688;2022-12-29T06:58:02;6.40;;;1.70;;
16416;SDS011;8317;52.186;5.688;2022-12-29T07:00:29;11.07;;;2.30;;
16416;SDS011;8317;52.186;5.688;2022-12-29T07:02:56;6.82;;;2.00;;
16416;SDS011;8317;52.186;5.688;2022-12-29T07:05:23;9.00;;;1.75;;
16416;SDS011;8317;52.186;5.688;2022-12-29T07:07:52;11.65;;;2.10;;
16416;SDS011;8317;52.186;5.688;2022-12-29T07:10:19;11.65;;;2.15;;
16416;SDS011;8317;52.186;5.688;2022-12-29T07:12:46;10.20;;;2.20;;
16416;SDS011;8317;52.186;5.688;2022-12-29T07:15:14;13.40;;;2.35;;
16416;SDS011;8317;52.186;5.688;2022-12-29T07:17:41;14.30;;;2.17;;
16416;SDS011;8317;52.186;5.688;2022-12-29T07:20:08;8.27;;;2.53;;
16416;SDS011;8317;52.186;5.688;2022-12-29T07:22:36;12.88;;;2.28;;
16416;SDS011;8317;52.186;5.688;2022-12-29T07:25:03;12.80;;;1.90;;
16416;SDS011;8317;52.186;5.688;2022-12-29T07:27:31;6.03;;;1.63;;
16416;SDS011;8317;52.186;5.688;2022-12-29T07:29:58;8.15;;;1.70;;
16416;SDS011;8317;52.186;5.688;2022-12-29T07:32:26;6.10;;;2.10;;
16416;SDS011;8317;52.186;5.688;2022-12-29T07:34:53;4.93;;;2.00;;
16416;SDS011;8317;52.186;5.688;2022-12-29T07:37:20;12.35;;;2.00;;
16416;SDS011;8317;52.186;5.688;2022-12-29T07:39:46;7.35;;;1.70;;
16416;SDS011;8317;52.186;5.688;2022-12-29T07:42:13;12.05;;;2.20;;
16416;SDS011;8317;52.186;5.688;2022-12-29T07:44:40;12.10;;;1.98;;
16416;SDS011;8317;52.186;5.688;2022-12-29T07:47:07;8.65;;;2.70;;
16416;SDS011;8317;52.186;5.688;2022-12-29T07:49:36;7.45;;;2.13;;
16416;SDS011;8317;52.186;5.688;2022-12-29T07:52:03;6.07;;;2.05;;
16416;SDS011;8317;52.186;5.688;2022-12-29T07:54:30;7.72;;;2.47;;
16416;SDS011;8317;52.186;5.688;2022-12-29T07:56:56;10.57;;;2.33;;
16416;SDS011;8317;52.186;5.688;2022-12-29T07:59:25;10.15;;;2.30;;
16416;SDS011;8317;52.186;5.688;2022-12-29T08:01:52;10.00;;;1.98;;
16416;SDS011;8317;52.186;5.688;2022-12-29T08:04:19;9.38;;;2.20;;
16416;SDS011;8317;52.186;5.688;2022-12-29T08:06:47;9.13;;;2.45;;
16416;SDS011;8317;52.186;5.688;2022-12-29T08:09:14;12.23;;;2.65;;
16416;SDS011;8317;52.186;5.688;2022-12-29T08:11:41;9.43;;;2.50;;
16416;SDS011;8317;52.186;5.688;2022-12-29T08:14:09;11.88;;;3.25;;
16416;SDS011;8317;52.186;5.688;2022-12-29T08:16:36;11.38;;;2.53;;
16416;SDS011;8317;52.186;5.688;2022-12-29T08:19:03;6.50;;;2.83;;
16416;SDS011;8317;52.186;5.688;2022-12-29T08:21:30;12.68;;;3.60;;
16416;SDS011;8317;52.186;5.688;2022-12-29T08:23:58;9.88;;;2.72;;
16416;SDS011;8317;52.186;5.688;2022-12-29T08:26:25;10.55;;;3.20;;
16416;SDS011;8317;52.186;5.688;2022-12-29T08:28:52;12.98;;;2.65;;
16416;SDS011;8317;52.186;5.688;2022-12-29T08:31:20;13.30;;;2.45;;
16416;SDS011;8317;52.186;5.688;2022-12-29T08:33:48;9.85;;;2.53;;
16416;SDS011;8317;52.186;5.688;2022-12-29T08:36:15;8.65;;;2.33;;
16416;SDS011;8317;52.186;5.688;2022-12-29T08:38:42;11.32;;;2.63;;
16416;SDS011;8317;52.186;5.688;2022-12-29T08:41:10;8.93;;;1.92;;
16416;SDS011;8317;52.186;5.688;2022-12-29T08:43:37;13.50;;;2.10;;
16416;SDS011;8317;52.186;5.688;2022-12-29T08:46:04;7.70;;;1.88;;
16416;SDS011;8317;52.186;5.688;2022-12-29T08:48:31;12.70;;;2.30;;
16416;SDS011;8317;52.186;5.688;2022-12-29T08:50:58;9.73;;;2.08;;
16416;SDS011;8317;52.186;5.688;2022-12-29T08:53:25;11.68;;;2.22;;
16416;SDS011;8317;52.186;5.688;2022-12-29T08:55:55;6.07;;;2.20;;
16416;SDS011;8317;52.186;5.688;2022-12-29T08:58:24;13.77;;;2.28;;
16416;SDS011;8317;52.186;5.688;2022-12-29T09:00:52;11.82;;;2.25;;
16416;SDS011;8317;52.186;5.688;2022-12-29T09:03:19;9.15;;;2.10;;
16416;SDS011;8317;52.186;5.688;2022-12-29T09:05:47;9.80;;;1.98;;
16416;SDS011;8317;52.186;5.688;2022-12-29T09:08:15;11.60;;;2.10;;
16416;SDS011;8317;52.186;5.688;2022-12-29T09:10:42;8.30;;;1.98;;
16416;SDS011;8317;52.186;5.688;2022-12-29T09:13:09;8.38;;;2.05;;
16416;SDS011;8317;52.186;5.688;2022-12-29T09:15:37;12.98;;;2.35;;
16416;SDS011;8317;52.186;5.688;2022-12-29T09:18:05;9.48;;;2.28;;
16416;SDS011;8317;52.186;5.688;2022-12-29T09:20:32;7.03;;;2.03;;
16416;SDS011;8317;52.186;5.688;2022-12-29T09:22:59;11.05;;;2.15;;
16416;SDS011;8317;52.186;5.688;2022-12-29T09:25:26;13.50;;;2.47;;
16416;SDS011;8317;52.186;5.688;2022-12-29T09:27:54;12.27;;;2.88;;
16416;SDS011;8317;52.186;5.688;2022-12-29T09:30:22;16.80;;;2.92;;
16416;SDS011;8317;52.186;5.688;2022-12-29T09:32:50;10.38;;;2.53;;
16416;SDS011;8317;52.186;5.688;2022-12-29T09:35:17;21.98;;;4.40;;
16416;SDS011;8317;52.186;5.688;2022-12-29T09:37:44;11.07;;;2.75;;
16416;SDS011;8317;52.186;5.688;2022-12-29T09:40:17;16.55;;;3.00;;
16416;SDS011;8317;52.186;5.688;2022-12-29T09:42:55;9.98;;;2.70;;
16416;SDS011;8317;52.186;5.688;2022-12-29T09:45:40;7.43;;;1.90;;
16416;SDS011;8317;52.186;5.688;2022-12-29T09:48:11;10.68;;;3.05;;
16416;SDS011;8317;52.186;5.688;2022-12-29T09:50:43;11.05;;;2.25;;
16416;SDS011;8317;52.186;5.688;2022-12-29T09:53:14;7.57;;;2.08;;
16416;SDS011;8317;52.186;5.688;2022-12-29T09:55:47;10.32;;;3.20;;
16416;SDS011;8317;52.186;5.688;2022-12-29T09:58:17;11.52;;;2.95;;
16416;SDS011;8317;52.186;5.688;2022-12-29T10:00:52;15.63;;;2.80;;
16416;SDS011;8317;52.186;5.688;2022-12-29T10:03:30;14.02;;;3.15;;
16416;SDS011;8317;52.186;5.688;2022-12-29T10:06:06;3.85;;;1.95;;
16416;SDS011;8317;52.186;5.688;2022-12-29T10:08:39;7.88;;;2.22;;
16416;SDS011;8317;52.186;5.688;2022-12-29T10:11:11;8.77;;;2.40;;
16416;SDS011;8317;52.186;5.688;2022-12-29T10:13:49;14.00;;;2.50;;
16416;SDS011;8317;52.186;5.688;2022-12-29T10:16:31;13.85;;;2.42;;
16416;SDS011;8317;52.186;5.688;2022-12-29T10:19:12;6.15;;;2.30;;
16416;SDS011;8317;52.186;5.688;2022-12-29T10:22:09;12.57;;;2.53;;
16416;SDS011;8317;52.186;5.688;2022-12-29T10:24:47;12.75;;;2.67;;
16416;SDS011;8317;52.186;5.688;2022-12-29T10:27:18;14.23;;;2.67;;
16416;SDS011;8317;52.186;5.688;2022-12-29T10:29:48;11.57;;;2.88;;
16416;SDS011;8317;52.186;5.688;2022-12-29T10:32:27;11.07;;;3.20;;
16416;SDS011;8317;52.186;5.688;2022-12-29T10:35:09;5.30;;;2.45;;
16416;SDS011;8317;52.186;5.688;2022-12-29T10:37:45;4.28;;;2.17;;
16416;SDS011;8317;52.186;5.688;2022-12-29T10:40:23;11.35;;;2.60;;
16416;SDS011;8317;52.186;5.688;2022-12-29T10:42:55;6.55;;;3.13;;
16416;SDS011;8317;52.186;5.688;2022-12-29T10:45:25;7.00;;;2.38;;
16416;SDS011;8317;52.186;5.688;2022-12-29T10:47:58;7.60;;;2.55;;
16416;SDS011;8317;52.186;5.688;2022-12-29T10:50:29;8.35;;;2.53;;
16416;SDS011;8317;52.186;5.688;2022-12-29T10:52:57;8.13;;;2.63;;
16416;SDS011;8317;52.186;5.688;2022-12-29T10:55:27;7.22;;;2.65;;
16416;SDS011;8317;52.186;5.688;2022-12-29T10:57:59;9.45;;;2.28;;
16416;SDS011;8317;52.186;5.688;2022-12-29T11:00:31;7.45;;;2.63;;
16416;SDS011;8317;52.186;5.688;2022-12-29T11:03:03;14.07;;;4.72;;
16416;SDS011;8317;52.186;5.688;2022-12-29T11:05:54;14.68;;;4.00;;
16416;SDS011;8317;52.186;5.688;2022-12-29T11:08:26;18.10;;;3.42;;
16416;SDS011;8317;52.186;5.688;2022-12-29T11:10:58;15.65;;;3.67;;
16416;SDS011;8317;52.186;5.688;2022-12-29T11:13:28;14.65;;;3.72;;
16416;SDS011;8317;52.186;5.688;2022-12-29T11:15:56;9.52;;;3.53;;
16416;SDS011;8317;52.186;5.688;2022-12-29T11:18:25;17.25;;;4.40;;
16416;SDS011;8317;52.186;5.688;2022-12-29T11:20:55;17.58;;;4.40;;
16416;SDS011;8317;52.186;5.688;2022-12-29T11:23:30;37.75;;;13.32;;
16416;SDS011;8317;52.186;5.688;2022-12-29T11:26:07;26.30;;;9.15;;
16416;SDS011;8317;52.186;5.688;2022-12-29T11:28:40;14.15;;;5.53;;
16416;SDS011;8317;52.186;5.688;2022-12-29T11:31:08;11.25;;;4.07;;
16416;SDS011;8317;52.186;5.688;2022-12-29T11:33:36;21.55;;;4.75;;
16416;SDS011;8317;52.186;5.688;2022-12-29T11:36:06;16.17;;;4.55;;
16416;SDS011;8317;52.186;5.688;2022-12-29T11:38:37;14.73;;;4.35;;
16416;SDS011;8317;52.186;5.688;2022-12-29T11:41:06;21.02;;;4.95;;
16416;SDS011;8317;52.186;5.688;2022-12-29T11:43:40;16.30;;;4.68;;
16416;SDS011;8317;52.186;5.688;2022-12-29T11:46:12;20.75;;;5.10;;
16416;SDS011;8317;52.186;5.688;2022-12-29T11:48:43;15.95;;;4.18;;
16416;SDS011;8317;52.186;5.688;2022-12-29T11:51:11;19.27;;;4.28;;
16416;SDS011;8317;52.186;5.688;2022-12-29T11:53:41;21.42;;;4.28;;
16416;SDS011;8317;52.186;5.688;2022-12-29T11:56:10;20.00;;;5.32;;
16416;SDS011;8317;52.186;5.688;2022-12-29T11:58:41;17.20;;;4.18;;
16416;SDS011;8317;52.186;5.688;2022-12-29T12:01:11;14.18;;;4.55;;
16416;SDS011;8317;52.186;5.688;2022-12-29T12:03:44;14.48;;;4.05;;
16416;SDS011;8317;52.186;5.688;2022-12-29T12:06:19;14.00;;;4.38;;
16416;SDS011;8317;52.186;5.688;2022-12-29T12:08:51;15.88;;;4.05;;
16416;SDS011;8317;52.186;5.688;2022-12-29T12:11:22;13.10;;;3.83;;
16416;SDS011;8317;52.186;5.688;2022-12-29T12:13:58;19.15;;;4.22;;
16416;SDS011;8317;52.186;5.688;2022-12-29T12:16:30;20.48;;;3.22;;
16416;SDS011;8317;52.186;5.688;2022-12-29T12:19:02;16.98;;;3.75;;
16416;SDS011;8317;52.186;5.688;2022-12-29T12:21:38;14.73;;;3.97;;
16416;SDS011;8317;52.186;5.688;2022-12-29T12:24:13;14.55;;;3.25;;
16416;SDS011;8317;52.186;5.688;2022-12-29T12:26:56;22.02;;;4.00;;
16416;SDS011;8317;52.186;5.688;2022-12-29T12:29:29;14.32;;;4.18;;
16416;SDS011;8317;52.186;5.688;2022-12-29T12:32:04;15.82;;;3.38;;
16416;SDS011;8317;52.186;5.688;2022-12-29T12:34:39;16.08;;;4.15;;
16416;SDS011;8317;52.186;5.688;2022-12-29T12:37:30;13.77;;;2.88;;
16416;SDS011;8317;52.186;5.688;2022-12-29T12:40:20;18.67;;;3.75;;
16416;SDS011;8317;52.186;5.688;2022-12-29T12:43:03;14.38;;;3.38;;
16416;SDS011;8317;52.186;5.688;2022-12-29T12:45:48;12.73;;;3.65;;
16416;SDS011;8317;52.186;5.688;2022-12-29T12:48:28;14.05;;;3.90;;
16416;SDS011;8317;52.186;5.688;2022-12-29T12:51:13;19.27;;;3.95;;
16416;SDS011;8317;52.186;5.688;2022-12-29T13:02:25;14.10;;;3.55;;
16416;SDS011;8317;52.186;5.688;2022-12-29T13:05:10;14.65;;;3.60;;
16416;SDS011;8317;52.186;5.688;2022-12-29T13:07:59;27.77;;;5.00;;
16416;SDS011;8317;52.186;5.688;2022-12-29T13:10:47;17.38;;;4.28;;
16416;SDS011;8317;52.186;5.688;2022-12-29T13:13:29;13.90;;;4.32;;
16416;SDS011;8317;52.186;5.688;2022-12-29T13:16:13;16.80;;;3.90;;
16416;SDS011;8317;52.186;5.688;2022-12-29T13:18:48;20.23;;;4.10;;
16416;SDS011;8317;52.186;5.688;2022-12-29T13:21:30;24.38;;;3.95;;
16416;SDS011;8317;52.186;5.688;2022-12-29T13:24:10;12.70;;;3.47;;
16416;SDS011;8317;52.186;5.688;2022-12-29T13:26:45;13.85;;;3.28;;
16416;SDS011;8317;52.186;5.688;2022-12-29T13:29:17;14.05;;;4.50;;
16416;SDS011;8317;52.186;5.688;2022-12-29T13:31:50;13.27;;;4.55;;
16416;SDS011;8317;52.186;5.688;2022-12-29T13:34:29;14.30;;;4.40;;
16416;SDS011;8317;52.186;5.688;2022-12-29T13:37:08;19.85;;;5.18;;
16416;SDS011;8317;52.186;5.688;2022-12-29T13:39:40;17.80;;;4.38;;
16416;SDS011;8317;52.186;5.688;2022-12-29T13:42:11;16.88;;;3.88;;
16416;SDS011;8317;52.186;5.688;2022-12-29T13:44:40;12.07;;;3.88;;
16416;SDS011;8317;52.186;5.688;2022-12-29T13:47:14;17.08;;;3.30;;
16416;SDS011;8317;52.186;5.688;2022-12-29T13:49:47;16.75;;;4.45;;
16416;SDS011;8317;52.186;5.688;2022-12-29T13:52:17;15.25;;;3.85;;
16416;SDS011;8317;52.186;5.688;2022-12-29T13:54:55;17.85;;;3.63;;
16416;SDS011;8317;52.186;5.688;2022-12-29T13:57:31;22.40;;;4.22;;
16416;SDS011;8317;52.186;5.688;2022-12-29T14:00:11;17.85;;;3.90;;
16416;SDS011;8317;52.186;5.688;2022-12-29T14:02:48;16.80;;;4.10;;
16416;SDS011;8317;52.186;5.688;2022-12-29T14:05:30;17.10;;;3.95;;
16416;SDS011;8317;52.186;5.688;2022-12-29T14:07:58;16.95;;;5.03;;
16416;SDS011;8317;52.186;5.688;2022-12-29T14:10:27;14.25;;;3.75;;
16416;SDS011;8317;52.186;5.688;2022-12-29T14:13:01;20.13;;;5.80;;
16416;SDS011;8317;52.186;5.688;2022-12-29T14:15:30;18.75;;;4.25;;
16416;SDS011;8317;52.186;5.688;2022-12-29T14:18:09;18.67;;;5.15;;
16416;SDS011;8317;52.186;5.688;2022-12-29T14:20:40;17.80;;;3.92;;
16416;SDS011;8317;52.186;5.688;2022-12-29T14:23:17;16.38;;;4.15;;
16416;SDS011;8317;52.186;5.688;2022-12-29T14:26:15;20.98;;;4.07;;
16416;SDS011;8317;52.186;5.688;2022-12-29T14:28:45;19.20;;;3.83;;
16416;SDS011;8317;52.186;5.688;2022-12-29T14:34:15;15.15;;;2.75;;
16416;SDS011;8317;52.186;5.688;2022-12-29T14:37:17;12.38;;;3.38;;
16416;SDS011;8317;52.186;5.688;2022-12-29T14:39:52;11.00;;;2.67;;
16416;SDS011;8317;52.186;5.688;2022-12-29T14:42:30;9.63;;;3.17;;
16416;SDS011;8317;52.186;5.688;2022-12-29T14:45:00;14.20;;;3.55;;
16416;SDS011;8317;52.186;5.688;2022-12-29T14:47:33;8.63;;;2.42;;
16416;SDS011;8317;52.186;5.688;2022-12-29T14:50:03;7.50;;;1.90;;
16416;SDS011;8317;52.186;5.688;2022-12-29T14:52:32;6.68;;;1.35;;
16416;SDS011;8317;52.186;5.688;2022-12-29T14:57:57;7.28;;;1.60;;
16416;SDS011;8317;52.186;5.688;2022-12-29T15:00:29;2.63;;;1.35;;
16416;SDS011;8317;52.186;5.688;2022-12-29T15:03:02;8.20;;;2.17;;
16416;SDS011;8317;52.186;5.688;2022-12-29T15:05:33;5.55;;;1.75;;
16416;SDS011;8317;52.186;5.688;2022-12-29T15:08:03;3.45;;;1.75;;
16416;SDS011;8317;52.186;5.688;2022-12-29T15:10:34;5.05;;;1.98;;
16416;SDS011;8317;52.186;5.688;2022-12-29T15:13:10;3.90;;;1.90;;
16416;SDS011;8317;52.186;5.688;2022-12-29T15:15:43;3.20;;;1.70;;
16416;SDS011;8317;52.186;5.688;2022-12-29T15:18:13;6.28;;;2.45;;
16416;SDS011;8317;52.186;5.688;2022-12-29T15:20:49;4.72;;;3.00;;
16416;SDS011;8317;52.186;5.688;2022-12-29T15:23:18;7.53;;;3.92;;
16416;SDS011;8317;52.186;5.688;2022-12-29T15:25:46;5.75;;;2.50;;
16416;SDS011;8317;52.186;5.688;2022-12-29T15:28:16;7.38;;;2.80;;
16416;SDS011;8317;52.186;5.688;2022-12-29T15:30:54;6.93;;;2.90;;
16416;SDS011;8317;52.186;5.688;2022-12-29T15:33:23;18.65;;;13.38;;
16416;SDS011;8317;52.186;5.688;2022-12-29T15:35:53;10.40;;;5.65;;
16416;SDS011;8317;52.186;5.688;2022-12-29T15:38:22;8.55;;;3.67;;